Detall de PIREP

Printer-friendly versionPDF version

[2014/04/14 09:14:00]
Flight IATA:CT1005
Pilot Number:011
Company ICAO:CAT
Aircraft Type:B738/F
PAX:160
Departing Airport: EBOS
Destination Airport: LBSF
Alternate Airport:LBWN
Online: VATSIM
Route: KOK UL607 AMASI UM149 DETEV UL603 OBEDI UN739 OKLOP UL617 RAVAK UY505 NISVA
Flight Level:F390
No Slew and time accel
No pause
Crash detect
Detect pilot in Cockpit between each 30 and 45 minutes
09:14 Zero fuel Weight: 136990 Lbs, Fuel Weight: 22733 Lbs
09:14 VATSIM:EBOS 140820Z 33015KT 9999 SCT027 SCT033 10/04 Q1022 NOSIG
09:14 VATSIM:LBSF 140830Z 30003MPS 250V340 CAVOK 14/05 Q1017 NOSIG
09:18 Parking Brakes off
09:35 Take-off
09:35 Take off Weight: 158158 Lbs
09:35 Wind: 324º @ 016 Knots Heading: 256º
09:35 POS N51º 11´ 57´´ E002º 52´ 12´´
09:35 Flaps:5 at 170 Knots
09:35 Gear Up: 172 Knots
09:37 Flaps:4 at 226 Knots
09:37 Flaps:3 at 236 Knots
09:38 Flaps:2 at 233Knots
09:38 Flaps:1 at 230 Knots
09:38 Flaps:0 at 230 Knots
09:47 Gear Down: 237 Knots
09:48 Gear Up: 149 Knots
09:50 Wind:310º@051 Knots Heading: 106º Ground Speed: 305 Knots Altitude 33910 ft
09:56 TOC
09:56 Fuel Weight: 16952 Lb
10:05 Wind:290º@044 Knots Heading: 118º Ground Speed: 493 Knots Altitude 39156 ft
10:20 Wind:278º@064 Knots Heading: 119º Ground Speed: 506 Knots Altitude 39094 ft
10:35 Wind:284º@068 Knots Heading: 120º Ground Speed: 520 Knots Altitude 39041 ft
10:50 Wind:081º@023 Knots Heading: 113º Ground Speed: 443 Knots Altitude 38940 ft
10:57 TOD
10:57 Fuel Weight: 12337 Lb
11:00 TOC
11:00 Fuel Weight: 12003 Lb
11:05 Wind:230º@064 Knots Heading: 126º Ground Speed: 485 Knots Altitude 38992 ft
11:20 Wind:232º@035 Knots Heading: 141º Ground Speed: 461 Knots Altitude 39002 ft
11:36 TOD
11:36 Fuel Weight: 9387 Lb
11:54 Flaps:1 at 232 Knots
11:54 Flaps:2 at 231 Knots
11:56 Flaps:3 at 238 Knots
11:57 Flaps:4 at 236 Knots
11:58 Flaps:5 at 199 Knots
11:58 Flaps:6 at 176 Knots
11:58 Gear Down: 174 Knots
12:02 Flaps:7 at 161 Knots
12:02 Flaps:8 at 159 Knots
12:06 TouchDown:Rate -532 ft/min Speed: 129 Knots
12:06 VATSIM:LBSF 141200Z 26003MPS 190V330 9999 FEW060 SCT090 17/M00 Q1014 NOSIG
12:06 Land
12:06 Wind:251º@006 Knots
12:06 Heading: 276º
12:06 Flight Duration: 02:31
12:06 Landing Weight: 144325 Lbs
12:06 POS N42º 41´ 45´´ E023º 24´ 11´´
12:11 Parking brakes on
12:11 Block to Block Duration: 02:53
12:11 Final Fuel: 6986 Lbls
12:11 Spent Fuel: 15747 Lbls
12:11 Flight Length: 770 NM
12:11 TOD Land Length: 00 NM

Exportar CSV

Powered by Drupal - Modified by Danger4k